Terminal Aerodrome Forecast
Issued by NWS

Home | Current Version | Previous Version | Text Only | Print | Product List | Glossary On
Versions: 1 2 3 4 5 6 7 8 9 10 11 12 13
000
FTUS46 KSGX 272337
TAFCRQ
TAF
KCRQ 272337Z 2800/2824 VRB05KT P6SM SKC
     FM280900 VRB04KT P6SM VCFG FEW002
     FM281200 VRB04KT 1SM BR BKN002
      TEMPO 2812/2815 1/4SM FG VV001
     FM281600 VRB04KT P6SM SKC
     FM281900 26008KT P6SM SKC=

USA.gov is the U.S. government's official web portal to all federal, state and local government web resources and services.